Time;durP1;ratioP1;P1;durP2;ratioP2;P2;SDS_P1;SDS_P2;PMS_P1;PMS_P2;Temp;Humidity;BMP_temperature;BMP_pressure;BME280_temperature;BME280_humidity;BME280_pressure;Samples;Min_cycle;Max_cycle;Signal;HPM_P1;HPM_P2
2023/12/21 00:01:02;;;;;;;71.03;63.38;;;;;;;;;;5024574;28;20044;-75
2023/12/21 00:03:27;;;;;;;70.68;62.97;;;;;;;;;;5005734;28;20307;-74
2023/12/21 00:05:52;;;;;;;69.15;61.50;;;;;;;;;;5017763;28;20018;-73
2023/12/21 00:08:19;;;;;;;73.25;62.33;;;;;;;;;;5022866;28;20049;-73
2023/12/21 00:10:45;;;;;;;73.93;59.78;;;;;;;;;;5023024;28;20033;-74
2023/12/21 00:13:11;;;;;;;70.18;60.17;;;;;;;;;;5022884;28;20091;-76
2023/12/21 00:15:36;;;;;;;72.28;60.40;;;;;;;;;;5005101;28;20037;-75
2023/12/21 00:18:01;;;;;;;72.45;64.28;;;;;;;;;;5007911;28;20042;-73
2023/12/21 00:20:27;;;;;;;74.35;64.68;;;;;;;;;;5023398;28;20040;-74
2023/12/21 00:22:52;;;;;;;76.57;63.60;;;;;;;;;;5023697;28;20029;-75
2023/12/21 00:25:17;;;;;;;72.72;62.88;;;;;;;;;;5023990;28;20025;-73
2023/12/21 00:27:43;;;;;;;75.72;62.65;;;;;;;;;;5023195;28;20056;-76
2023/12/21 00:30:08;;;;;;;58.72;50.85;;;;;;;;;;5023937;28;20021;-76
2023/12/21 00:32:34;;;;;;;51.80;42.95;;;;;;;;;;5011743;28;20041;-76
2023/12/21 00:34:59;;;;;;;56.97;49.53;;;;;;;;;;5026144;28;20072;-77
2023/12/21 00:37:24;;;;;;;53.72;44.65;;;;;;;;;;5024384;28;20026;-76
2023/12/21 00:39:50;;;;;;;48.78;41.63;;;;;;;;;;5011397;28;20632;-77
2023/12/21 00:42:15;;;;;;;49.70;43.88;;;;;;;;;;5023501;28;20341;-77
2023/12/21 00:44:40;;;;;;;47.08;38.22;;;;;;;;;;5023410;28;20150;-78
2023/12/21 00:47:06;;;;;;;50.60;43.05;;;;;;;;;;5023343;28;20037;-74
2023/12/21 00:49:31;;;;;;;61.35;51.85;;;;;;;;;;5023311;28;20099;-78
2023/12/21 00:51:57;;;;;;;49.75;42.35;;;;;;;;;;5023538;28;20063;-75
2023/12/21 00:54:22;;;;;;;47.40;39.42;;;;;;;;;;5011178;28;20021;-76
2023/12/21 00:56:47;;;;;;;48.65;42.15;;;;;;;;;;5022966;28;20088;-75
2023/12/21 00:59:13;;;;;;;49.33;42.05;;;;;;;;;;5001976;28;20029;-75
2023/12/21 01:01:38;;;;;;;52.60;45.20;;;;;;;;;;5005832;28;20116;-76
2023/12/21 01:04:04;;;;;;;50.63;42.92;;;;;;;;;;5020958;28;20456;-75
2023/12/21 01:06:29;;;;;;;52.30;46.55;;;;;;;;;;5022549;28;20022;-76
2023/12/21 01:08:54;;;;;;;50.80;43.30;;;;;;;;;;5022868;28;20430;-75
2023/12/21 01:11:20;;;;;;;46.10;39.28;;;;;;;;;;5022445;28;20048;-75
2023/12/21 01:13:45;;;;;;;52.10;42.80;;;;;;;;;;5022576;28;20067;-75
2023/12/21 01:16:10;;;;;;;40.63;35.38;;;;;;;;;;5022156;28;20474;-76
2023/12/21 01:18:37;;;;;;;44.35;38.50;;;;;;;;;;5014618;28;20395;-75
2023/12/21 01:21:02;;;;;;;47.47;41.47;;;;;;;;;;5006374;28;20025;-76
2023/12/21 01:23:28;;;;;;;54.35;47.90;;;;;;;;;;5022708;28;20049;-76
2023/12/21 01:25:53;;;;;;;51.72;45.50;;;;;;;;;;5021926;28;20037;-76
2023/12/21 01:28:18;;;;;;;41.85;37.33;;;;;;;;;;5006372;28;20025;-73
2023/12/21 01:30:44;;;;;;;44.40;37.83;;;;;;;;;;5015371;28;20041;-74
2023/12/21 01:33:09;;;;;;;49.63;41.92;;;;;;;;;;5022294;28;20042;-75
2023/12/21 01:35:34;;;;;;;45.20;34.90;;;;;;;;;;5009974;28;20108;-75
2023/12/21 01:38:00;;;;;;;42.95;35.47;;;;;;;;;;5022134;28;20452;-75
2023/12/21 01:40:25;;;;;;;33.28;29.60;;;;;;;;;;5009036;28;20464;-75
2023/12/21 01:42:50;;;;;;;56.15;49.30;;;;;;;;;;5007652;28;20033;-75
2023/12/21 01:45:16;;;;;;;41.70;37.20;;;;;;;;;;5011979;28;20033;-75
2023/12/21 01:47:42;;;;;;;57.67;48.92;;;;;;;;;;5021800;28;20120;-75
2023/12/21 01:50:08;;;;;;;42.70;36.83;;;;;;;;;;5022293;28;20040;-75
2023/12/21 01:52:34;;;;;;;44.28;38.00;;;;;;;;;;5021741;28;20033;-75
2023/12/21 01:55:00;;;;;;;42.53;35.60;;;;;;;;;;5022973;28;20056;-74
2023/12/21 01:57:25;;;;;;;39.85;35.58;;;;;;;;;;5021892;28;20392;-76
2023/12/21 01:59:51;;;;;;;36.88;32.90;;;;;;;;;;5022054;28;20405;-73
2023/12/21 02:02:16;;;;;;;45.35;36.80;;;;;;;;;;5009337;28;20044;-75
2023/12/21 02:04:42;;;;;;;48.58;42.05;;;;;;;;;;5013170;28;20029;-75
2023/12/21 02:07:07;;;;;;;50.45;41.78;;;;;;;;;;5022287;28;20207;-74
2023/12/21 02:09:33;;;;;;;37.17;33.15;;;;;;;;;;5022652;28;20132;-76
2023/12/21 02:11:58;;;;;;;37.17;32.13;;;;;;;;;;5021575;28;20025;-74
2023/12/21 02:14:23;;;;;;;33.38;29.50;;;;;;;;;;5022536;28;20029;-74
2023/12/21 02:16:53;;;;;;;34.92;30.85;;;;;;;;;;5007999;28;20037;-75
2023/12/21 02:19:18;;;;;;;;;;;;;;;;;;5022931;28;20150;-72
2023/12/21 02:21:45;;;;;;;26.67;23.87;;;;;;;;;;5013435;28;20001;-74
2023/12/21 02:24:17;;;;;;;27.08;23.33;;;;;;;;;;5018579;28;20025;-74
2023/12/21 02:26:43;;;;;;;23.60;21.15;;;;;;;;;;5009697;28;20457;-74
2023/12/21 02:29:08;;;;;;;22.90;19.90;;;;;;;;;;5006687;28;20029;-75
2023/12/21 02:31:34;;;;;;;24.25;21.75;;;;;;;;;;5010158;28;20025;-75
2023/12/21 02:33:59;;;;;;;24.15;21.55;;;;;;;;;;5008984;28;20033;-75
2023/12/21 02:36:24;;;;;;;19.85;17.50;;;;;;;;;;5020965;28;20040;-74
2023/12/21 02:38:50;;;;;;;22.42;20.13;;;;;;;;;;5007335;28;20091;-78
2023/12/21 02:41:16;;;;;;;20.65;18.45;;;;;;;;;;5005262;28;20164;-76
2023/12/21 02:43:42;;;;;;;22.95;20.55;;;;;;;;;;5009022;28;21144;-75
2023/12/21 02:46:07;;;;;;;24.58;22.02;;;;;;;;;;5021184;28;20024;-75
2023/12/21 02:48:32;;;;;;;25.42;22.70;;;;;;;;;;5020901;28;20034;-75
2023/12/21 02:50:59;;;;;;;28.13;24.35;;;;;;;;;;5022194;28;20076;-77
2023/12/21 02:53:25;;;;;;;32.20;28.70;;;;;;;;;;5019169;28;20530;-75
2023/12/21 02:55:50;;;;;;;32.45;28.90;;;;;;;;;;5007902;28;20116;-75
2023/12/21 02:58:16;;;;;;;32.95;28.15;;;;;;;;;;5016705;28;20433;-75
2023/12/21 03:00:41;;;;;;;30.33;26.92;;;;;;;;;;4999770;28;20033;-77
2023/12/21 03:03:06;;;;;;;29.27;26.10;;;;;;;;;;5015123;28;20068;-76
2023/12/21 03:05:32;;;;;;;30.15;26.80;;;;;;;;;;5021604;28;20036;-76
2023/12/21 03:07:57;;;;;;;36.38;30.48;;;;;;;;;;5020873;28;20041;-74
2023/12/21 03:10:22;;;;;;;36.17;32.13;;;;;;;;;;5014893;28;20026;-75
2023/12/21 03:12:48;;;;;;;36.38;31.40;;;;;;;;;;5015457;28;20080;-75
2023/12/21 03:15:13;;;;;;;34.78;29.05;;;;;;;;;;5008677;28;20419;-78
2023/12/21 03:17:39;;;;;;;35.22;30.80;;;;;;;;;;5025520;28;20075;-75
2023/12/21 03:20:04;;;;;;;34.97;31.23;;;;;;;;;;5025225;28;20030;-75
2023/12/21 03:22:30;;;;;;;36.08;31.75;;;;;;;;;;5024865;28;20025;-76
2023/12/21 03:24:55;;;;;;;34.10;29.20;;;;;;;;;;5025596;28;20033;-75
2023/12/21 03:27:20;;;;;;;31.13;27.90;;;;;;;;;;5025234;28;20429;-75
2023/12/21 03:29:46;;;;;;;30.60;26.50;;;;;;;;;;5015591;28;20033;-78
2023/12/21 03:32:11;;;;;;;34.40;30.52;;;;;;;;;;5020264;28;20346;-76
2023/12/21 03:34:36;;;;;;;34.40;30.25;;;;;;;;;;5008324;28;20033;-78
2023/12/21 03:37:02;;;;;;;30.80;26.80;;;;;;;;;;5014730;28;20021;-77
2023/12/21 03:39:28;;;;;;;32.53;28.30;;;;;;;;;;5024908;28;20026;-78
2023/12/21 03:41:53;;;;;;;29.45;26.08;;;;;;;;;;5024234;28;20112;-78
2023/12/21 03:44:18;;;;;;;189.75;113.95;;;;;;;;;;5011689;28;20025;-77
2023/12/21 03:46:44;;;;;;;243.60;151.15;;;;;;;;;;5007522;28;20030;-77
2023/12/21 03:49:09;;;;;;;150.13;98.72;;;;;;;;;;5008154;28;20025;-76
2023/12/21 03:51:34;;;;;;;76.38;54.53;;;;;;;;;;5022822;28;20040;-76
2023/12/21 03:54:00;;;;;;;33.30;27.33;;;;;;;;;;5014446;28;20060;-76
2023/12/21 03:56:25;;;;;;;33.22;28.70;;;;;;;;;;5022897;28;20103;-75
2023/12/21 03:58:50;;;;;;;31.08;27.02;;;;;;;;;;5024237;28;20073;-77
2023/12/21 04:01:23;;;;;;;29.10;26.00;;;;;;;;;;5008700;28;20052;-78
2023/12/21 04:03:48;;;;;;;27.85;24.83;;;;;;;;;;5009272;28;20041;-78
2023/12/21 04:06:14;;;;;;;32.47;28.42;;;;;;;;;;5024697;28;20021;-77
2023/12/21 04:08:39;;;;;;;42.85;34.78;;;;;;;;;;5023612;28;20060;-77
2023/12/21 04:11:04;;;;;;;40.25;32.90;;;;;;;;;;5012159;28;20030;-77
2023/12/21 04:13:30;;;;;;;30.23;26.85;;;;;;;;;;5019462;28;20112;-77
2023/12/21 04:15:55;;;;;;;29.50;25.63;;;;;;;;;;5016585;28;20083;-76
2023/12/21 04:18:20;;;;;;;37.90;31.08;;;;;;;;;;5023934;28;20527;-75
2023/12/21 04:20:46;;;;;;;36.75;31.00;;;;;;;;;;5016343;28;20355;-75
2023/12/21 04:23:11;;;;;;;30.88;27.42;;;;;;;;;;5002100;28;20037;-76
2023/12/21 04:25:37;;;;;;;34.83;31.02;;;;;;;;;;5010132;28;20025;-76
2023/12/21 04:28:02;;;;;;;70.07;50.63;;;;;;;;;;5023769;28;20485;-75
2023/12/21 04:30:28;;;;;;;41.33;34.45;;;;;;;;;;5024544;28;20025;-75
2023/12/21 04:32:53;;;;;;;48.90;40.88;;;;;;;;;;5023627;28;20022;-76
2023/12/21 04:35:18;;;;;;;44.22;38.88;;;;;;;;;;5012131;28;20036;-75
2023/12/21 04:37:44;;;;;;;45.42;40.45;;;;;;;;;;5007818;28;20037;-76
2023/12/21 04:40:09;;;;;;;44.33;38.30;;;;;;;;;;5005583;28;20037;-75
2023/12/21 04:42:35;;;;;;;41.67;36.75;;;;;;;;;;5023898;28;20476;-76
2023/12/21 04:45:00;;;;;;;42.05;37.22;;;;;;;;;;5012549;28;20103;-75
2023/12/21 04:47:26;;;;;;;40.88;36.40;;;;;;;;;;5018989;28;21002;-76
2023/12/21 04:49:52;;;;;;;41.95;37.25;;;;;;;;;;5015979;28;20172;-76
2023/12/21 04:52:17;;;;;;;43.83;39.00;;;;;;;;;;5023913;28;20459;-76
2023/12/21 04:54:43;;;;;;;40.05;35.75;;;;;;;;;;5023457;28;20032;-75
2023/12/21 04:57:08;;;;;;;39.70;35.40;;;;;;;;;;5023834;28;20079;-75
2023/12/21 04:59:33;;;;;;;45.78;40.22;;;;;;;;;;5030070;28;20033;-75
2023/12/21 05:01:59;;;;;;;43.72;38.10;;;;;;;;;;5012260;28;20036;-76
2023/12/21 05:04:24;;;;;;;41.38;36.97;;;;;;;;;;5018552;28;20025;-76
2023/12/21 05:06:50;;;;;;;48.38;42.00;;;;;;;;;;5022156;28;20113;-77
2023/12/21 05:09:15;;;;;;;45.63;38.83;;;;;;;;;;5023473;28;20057;-75
2023/12/21 05:11:40;;;;;;;45.20;39.08;;;;;;;;;;5015342;28;20075;-74
2023/12/21 05:14:06;;;;;;;43.13;38.05;;;;;;;;;;5019070;28;20033;-74
2023/12/21 05:16:31;;;;;;;43.22;38.53;;;;;;;;;;5011002;28;20014;-75
2023/12/21 05:18:56;;;;;;;43.70;38.13;;;;;;;;;;5010756;28;20050;-75
2023/12/21 05:21:22;;;;;;;42.53;37.90;;;;;;;;;;5023034;28;20030;-74
2023/12/21 05:23:47;;;;;;;47.88;42.13;;;;;;;;;;5022496;28;20040;-75
2023/12/21 05:26:13;;;;;;;47.10;42.13;;;;;;;;;;5022836;28;20120;-75
2023/12/21 05:28:39;;;;;;;55.13;46.53;;;;;;;;;;5003663;28;20048;-76
2023/12/21 05:31:06;;;;;;;52.28;45.13;;;;;;;;;;5003775;28;20048;-74
2023/12/21 05:33:31;;;;;;;58.92;48.03;;;;;;;;;;5022044;28;20025;-75
2023/12/21 05:35:56;;;;;;;56.05;47.85;;;;;;;;;;5007738;28;20111;-75
2023/12/21 05:38:22;;;;;;;45.45;40.50;;;;;;;;;;5005992;28;20120;-77
2023/12/21 05:40:47;;;;;;;52.28;46.13;;;;;;;;;;5003989;28;20052;-76
2023/12/21 05:43:12;;;;;;;48.55;41.45;;;;;;;;;;5016549;28;20057;-76
2023/12/21 05:45:38;;;;;;;59.28;48.55;;;;;;;;;;5022431;28;20645;-77
2023/12/21 05:48:03;;;;;;;134.57;95.32;;;;;;;;;;5009662;28;20132;-74
2023/12/21 05:50:28;;;;;;;137.35;96.18;;;;;;;;;;5007132;28;20068;-76
2023/12/21 05:52:54;;;;;;;186.43;117.35;;;;;;;;;;5007346;28;20069;-74
2023/12/21 05:55:20;;;;;;;204.60;139.23;;;;;;;;;;5001333;28;20459;-74
2023/12/21 05:57:45;;;;;;;91.13;68.93;;;;;;;;;;5008687;28;20445;-75
2023/12/21 06:00:11;;;;;;;184.25;125.65;;;;;;;;;;5012299;28;20032;-75
2023/12/21 06:02:36;;;;;;;156.18;102.72;;;;;;;;;;5005116;28;20043;-75
2023/12/21 06:05:02;;;;;;;73.07;57.30;;;;;;;;;;5007202;28;20048;-77
2023/12/21 06:07:27;;;;;;;93.97;74.20;;;;;;;;;;4989921;28;20040;-75
2023/12/21 06:09:53;;;;;;;83.35;70.45;;;;;;;;;;5006419;28;20041;-75
2023/12/21 06:12:18;;;;;;;37.53;33.42;;;;;;;;;;4990690;28;20488;-77
2023/12/21 06:14:43;;;;;;;40.00;35.67;;;;;;;;;;5005474;28;20057;-75
2023/12/21 06:17:11;;;;;;;84.15;69.28;;;;;;;;;;5005374;28;20017;-75
2023/12/21 06:19:36;;;;;;;111.57;95.75;;;;;;;;;;5005118;28;20102;-75
2023/12/21 06:22:01;;;;;;;90.55;76.25;;;;;;;;;;5006364;28;20029;-76
2023/12/21 06:24:27;;;;;;;71.07;63.45;;;;;;;;;;5006438;28;20329;-76
2023/12/21 06:26:52;;;;;;;60.85;53.75;;;;;;;;;;5004771;28;20029;-77
2023/12/21 06:29:18;;;;;;;42.03;37.45;;;;;;;;;;5006536;28;20075;-74
2023/12/21 06:31:43;;;;;;;39.00;34.80;;;;;;;;;;5003505;28;20361;-75
2023/12/21 06:34:08;;;;;;;35.85;32.00;;;;;;;;;;5005499;28;20107;-75
2023/12/21 06:36:34;;;;;;;33.90;30.42;;;;;;;;;;4988235;28;20029;-75
2023/12/21 06:38:59;;;;;;;41.72;36.88;;;;;;;;;;5005972;28;20335;-77
2023/12/21 06:41:25;;;;;;;57.08;50.70;;;;;;;;;;5005826;28;20441;-76
2023/12/21 06:43:50;;;;;;;46.83;41.90;;;;;;;;;;5005923;28;20445;-76
2023/12/21 06:46:16;;;;;;;54.58;44.83;;;;;;;;;;5005653;28;20815;-76
2023/12/21 06:48:44;;;;;;;55.33;45.05;;;;;;;;;;5012941;28;20033;-76
2023/12/21 06:51:09;;;;;;;44.97;40.10;;;;;;;;;;5007078;28;20623;-77
2023/12/21 06:53:34;;;;;;;53.90;48.30;;;;;;;;;;5018957;28;20037;-78
2023/12/21 06:56:00;;;;;;;51.50;45.92;;;;;;;;;;5020650;28;20439;-77
2023/12/21 06:58:27;;;;;;;41.45;37.15;;;;;;;;;;5021581;28;20459;-77
2023/12/21 07:00:52;;;;;;;41.30;37.00;;;;;;;;;;5014625;28;20426;-76
2023/12/21 07:03:18;;;;;;;50.08;44.95;;;;;;;;;;4998529;28;20037;-76
2023/12/21 07:05:43;;;;;;;41.15;37.00;;;;;;;;;;5002651;28;20545;-76
2023/12/21 07:08:08;;;;;;;43.53;33.83;;;;;;;;;;5019391;28;20056;-76
2023/12/21 07:10:34;;;;;;;32.38;28.77;;;;;;;;;;5013127;28;20074;-76
2023/12/21 07:13:00;;;;;;;45.28;38.00;;;;;;;;;;5006648;28;20025;-76
2023/12/21 07:15:25;;;;;;;37.15;33.15;;;;;;;;;;5006818;28;20052;-75
2023/12/21 07:17:51;;;;;;;46.35;36.42;;;;;;;;;;5013406;28;20608;-78
2023/12/21 07:20:20;;;;;;;34.53;29.98;;;;;;;;;;5007345;28;20044;-78
2023/12/21 07:22:45;;;;;;;38.13;34.03;;;;;;;;;;5011117;28;20590;-77
2023/12/21 07:25:11;;;;;;;48.60;38.38;;;;;;;;;;5017486;28;20075;-79
2023/12/21 07:27:36;;;;;;;30.80;27.58;;;;;;;;;;5007560;28;20032;-73
2023/12/21 07:30:01;;;;;;;35.22;28.98;;;;;;;;;;5008359;28;20090;-76
2023/12/21 07:32:27;;;;;;;49.08;37.10;;;;;;;;;;5006924;28;20552;-75
2023/12/21 07:34:52;;;;;;;32.60;26.02;;;;;;;;;;5005250;28;20361;-74
2023/12/21 07:37:18;;;;;;;41.20;33.50;;;;;;;;;;4996116;28;20112;-72
2023/12/21 07:39:43;;;;;;;30.58;26.90;;;;;;;;;;5005978;28;20025;-71
2023/12/21 07:42:09;;;;;;;30.58;26.98;;;;;;;;;;5007194;28;20099;-76
2023/12/21 07:44:35;;;;;;;35.40;31.80;;;;;;;;;;5006450;28;20068;-73
2023/12/21 07:47:02;;;;;;;47.63;38.58;;;;;;;;;;5006664;28;20057;-75
2023/12/21 07:49:27;;;;;;;33.50;27.70;;;;;;;;;;5011575;28;20095;-73
2023/12/21 07:51:52;;;;;;;40.63;31.15;;;;;;;;;;5004910;28;20033;-74
2023/12/21 07:54:19;;;;;;;31.40;27.50;;;;;;;;;;5006068;28;20037;-80
2023/12/21 07:56:45;;;;;;;38.45;34.25;;;;;;;;;;5006622;28;20036;-78
2023/12/21 07:59:10;;;;;;;32.50;28.92;;;;;;;;;;5008902;28;20025;-79
2023/12/21 08:01:35;;;;;;;38.35;33.53;;;;;;;;;;4995976;28;20475;-79
2023/12/21 08:04:01;;;;;;;45.15;39.47;;;;;;;;;;5010348;28;20495;-80
2023/12/21 08:06:26;;;;;;;56.90;47.90;;;;;;;;;;5010583;28;20025;-81
2023/12/21 08:08:54;;;;;;;34.92;30.50;;;;;;;;;;5010493;28;20461;-78
2023/12/21 08:11:20;;;;;;;39.28;35.15;;;;;;;;;;4994576;28;20061;-80
2023/12/21 08:13:45;;;;;;;34.08;30.40;;;;;;;;;;4996844;28;20041;-79
2023/12/21 08:16:11;;;;;;;29.10;25.92;;;;;;;;;;5019209;28;20420;-82
2023/12/21 08:18:36;;;;;;;37.30;29.25;;;;;;;;;;4995492;28;20438;-80
2023/12/21 08:21:01;;;;;;;33.35;28.40;;;;;;;;;;5011960;28;20087;-81
2023/12/21 08:23:27;;;;;;;22.48;18.20;;;;;;;;;;5010446;28;20033;-80
2023/12/21 08:25:52;;;;;;;31.15;25.42;;;;;;;;;;5009328;28;20028;-78
2023/12/21 08:28:17;;;;;;;53.35;38.38;;;;;;;;;;5007077;28;20422;-80
2023/12/21 08:30:43;;;;;;;30.77;25.95;;;;;;;;;;5013618;28;20031;-80
2023/12/21 08:33:08;;;;;;;52.83;38.50;;;;;;;;;;5016711;28;20432;-79
2023/12/21 08:35:34;;;;;;;77.50;54.08;;;;;;;;;;5015092;28;20032;-81
2023/12/21 08:38:00;;;;;;;40.05;31.00;;;;;;;;;;5023461;28;20021;-79
2023/12/21 08:40:26;;;;;;;135.32;85.95;;;;;;;;;;5023955;28;20116;-81
2023/12/21 08:42:51;;;;;;;97.60;65.47;;;;;;;;;;5023791;28;20112;-81
2023/12/21 08:45:17;;;;;;;67.32;48.33;;;;;;;;;;5012090;28;20036;-81
2023/12/21 08:47:42;;;;;;;77.32;52.88;;;;;;;;;;5009496;28;20104;-80
2023/12/21 08:50:11;;;;;;;74.13;51.33;;;;;;;;;;5008365;28;20029;-78
2023/12/21 08:52:37;;;;;;;57.40;40.95;;;;;;;;;;5010133;28;20043;-78
2023/12/21 08:55:03;;;;;;;74.43;52.35;;;;;;;;;;5012375;28;20368;-79
2023/12/21 08:57:29;;;;;;;33.08;26.88;;;;;;;;;;5009611;28;20047;-78
2023/12/21 08:59:55;;;;;;;49.35;42.05;;;;;;;;;;5009686;28;20112;-78
2023/12/21 09:02:20;;;;;;;34.78;30.70;;;;;;;;;;5008800;28;20025;-79
2023/12/21 09:04:47;;;;;;;22.73;20.25;;;;;;;;;;5016737;28;20032;-83
2023/12/21 09:07:12;;;;;;;11.68;9.90;;;;;;;;;;5010433;28;20175;-78
2023/12/21 09:09:38;;;;;;;20.58;15.77;;;;;;;;;;4989487;28;20566;-79
2023/12/21 09:12:03;;;;;;;20.63;15.52;;;;;;;;;;5002406;28;20809;-78
2023/12/21 09:14:29;;;;;;;14.27;12.02;;;;;;;;;;4991187;28;20036;-78
2023/12/21 09:16:55;;;;;;;14.98;13.13;;;;;;;;;;4988894;28;20357;-82
2023/12/21 09:19:21;;;;;;;12.00;10.43;;;;;;;;;;4991138;28;20034;-81
2023/12/21 09:21:46;;;;;;;14.38;12.52;;;;;;;;;;4999791;28;20052;-78
2023/12/21 09:24:11;;;;;;;20.83;18.80;;;;;;;;;;5003327;28;20029;-78
2023/12/21 09:26:37;;;;;;;18.75;16.85;;;;;;;;;;5003047;28;20045;-77
2023/12/21 09:29:04;;;;;;;14.70;13.10;;;;;;;;;;5003651;28;20128;-77
2023/12/21 09:31:30;;;;;;;22.30;19.98;;;;;;;;;;5002848;28;20027;-77
2023/12/21 09:33:55;;;;;;;19.52;17.50;;;;;;;;;;5002057;28;20099;-80
2023/12/21 09:36:21;;;;;;;32.65;27.10;;;;;;;;;;5003052;28;20030;-78
2023/12/21 09:38:46;;;;;;;38.42;34.55;;;;;;;;;;5002764;28;20037;-79
2023/12/21 09:41:12;;;;;;;20.42;17.65;;;;;;;;;;5003331;28;20500;-78
2023/12/21 09:43:39;;;;;;;36.17;25.85;;;;;;;;;;5003179;28;20037;-79
2023/12/21 09:46:05;;;;;;;20.15;16.27;;;;;;;;;;5002529;28;20087;-78
2023/12/21 09:48:31;;;;;;;35.30;26.77;;;;;;;;;;5002560;28;20029;-80
2023/12/21 09:50:57;;;;;;;18.08;14.38;;;;;;;;;;5003666;28;20112;-78
2023/12/21 09:53:24;;;;;;;18.83;16.88;;;;;;;;;;5000885;28;20038;-80
2023/12/21 09:55:50;;;;;;;22.33;19.40;;;;;;;;;;5002006;28;20041;-78
2023/12/21 09:58:16;;;;;;;15.63;13.23;;;;;;;;;;5001893;28;20131;-79
2023/12/21 10:00:41;;;;;;;17.42;15.25;;;;;;;;;;5003439;28;20508;-81
2023/12/21 10:03:07;;;;;;;19.52;16.13;;;;;;;;;;5003041;28;20057;-80
2023/12/21 10:05:32;;;;;;;16.15;13.88;;;;;;;;;;5003252;28;20021;-81
2023/12/21 10:07:58;;;;;;;32.55;28.02;;;;;;;;;;5005928;28;20573;-79
2023/12/21 10:10:23;;;;;;;24.80;18.92;;;;;;;;;;5023176;28;20045;-79
2023/12/21 10:12:49;;;;;;;19.30;16.23;;;;;;;;;;5021999;28;20037;-77
2023/12/21 10:15:14;;;;;;;16.33;14.18;;;;;;;;;;5022773;28;20022;-78
2023/12/21 10:17:39;;;;;;;29.58;24.02;;;;;;;;;;5021948;28;20037;-79
2023/12/21 10:20:06;;;;;;;41.22;27.73;;;;;;;;;;5022409;28;20022;-82
2023/12/21 10:22:31;;;;;;;39.55;28.02;;;;;;;;;;5021809;28;20518;-78
2023/12/21 10:24:56;;;;;;;29.80;22.05;;;;;;;;;;5020580;28;20025;-80
2023/12/21 10:27:23;;;;;;;42.55;34.13;;;;;;;;;;5021980;28;20033;-81
2023/12/21 10:29:53;;;;;;;23.98;20.50;;;;;;;;;;5021924;28;20571;-81
2023/12/21 10:32:18;;;;;;;27.88;24.95;;;;;;;;;;5022651;28;20037;-78
2023/12/21 10:34:43;;;;;;;31.80;28.40;;;;;;;;;;5020737;28;20037;-81
2023/12/21 10:37:09;;;;;;;36.85;31.38;;;;;;;;;;5021822;28;20061;-78
2023/12/21 10:39:34;;;;;;;24.38;21.08;;;;;;;;;;5023708;28;20029;-80
2023/12/21 10:42:00;;;;;;;16.98;15.27;;;;;;;;;;5007990;28;20445;-77
2023/12/21 10:44:26;;;;;;;12.38;11.07;;;;;;;;;;5007798;28;20495;-78
2023/12/21 10:46:51;;;;;;;16.92;15.23;;;;;;;;;;5004909;28;20033;-77
2023/12/21 10:49:17;;;;;;;24.00;21.60;;;;;;;;;;5019849;28;20167;-77
2023/12/21 10:51:43;;;;;;;24.63;20.60;;;;;;;;;;5006400;28;20686;-78
2023/12/21 10:54:09;;;;;;;21.27;18.23;;;;;;;;;;5007649;28;20104;-77
2023/12/21 10:56:39;;;;;;;65.78;54.70;;;;;;;;;;5008159;28;20124;-77
2023/12/21 10:59:06;;;;;;;24.10;20.88;;;;;;;;;;4997850;28;20025;-77
2023/12/21 11:01:32;;;;;;;14.55;12.13;;;;;;;;;;5007906;28;20037;-76
2023/12/21 11:04:01;;;;;;;24.65;18.85;;;;;;;;;;5007405;28;20040;-78
2023/12/21 11:06:27;;;;;;;13.13;11.70;;;;;;;;;;4991698;28;20037;-78
2023/12/21 11:08:53;;;;;;;12.10;10.82;;;;;;;;;;4995399;28;20041;-78
2023/12/21 11:11:22;;;;;;;24.52;19.67;;;;;;;;;;4996203;28;20360;-77
2023/12/21 11:13:52;;;;;;;41.53;30.73;;;;;;;;;;4997984;28;20041;-77
2023/12/21 11:16:20;;;;;;;24.33;19.98;;;;;;;;;;5010014;28;20041;-77
2023/12/21 11:18:45;;;;;;;19.23;14.50;;;;;;;;;;5006451;28;20041;-78
2023/12/21 11:21:12;;;;;;;29.48;22.75;;;;;;;;;;5017638;28;20048;-77
2023/12/21 11:23:44;;;;;;;36.55;24.85;;;;;;;;;;5009470;28;20037;-77
2023/12/21 11:26:10;;;;;;;115.05;66.95;;;;;;;;;;5020243;28;20322;-77
2023/12/21 11:28:35;;;;;;;19.73;16.65;;;;;;;;;;5021556;28;20032;-79
2023/12/21 11:31:14;;;;;;;16.15;14.45;;;;;;;;;;5004355;28;20022;-79
2023/12/21 11:33:39;;;;;;;34.50;30.90;;;;;;;;;;5020559;28;20111;-83
2023/12/21 11:36:05;;;;;;;46.08;36.13;;;;;;;;;;5020251;28;20017;-81
2023/12/21 11:38:47;;;;;;;22.30;19.20;;;;;;;;;;5024520;28;20033;-79
2023/12/21 11:41:16;;;;;;;29.67;25.90;;;;;;;;;;5009835;28;20022;-77
2023/12/21 11:43:53;;;;;;;19.00;15.73;;;;;;;;;;5010980;28;20040;-81
2023/12/21 11:46:18;;;;;;;18.00;14.05;;;;;;;;;;5010570;28;20041;-81
2023/12/21 11:48:43;;;;;;;12.77;9.65;;;;;;;;;;5013569;28;20025;-79
2023/12/21 11:51:09;;;;;;;24.05;18.17;;;;;;;;;;5011353;28;20535;-79
2023/12/21 11:53:38;;;;;;;23.45;20.35;;;;;;;;;;5014875;28;20022;-80
2023/12/21 11:56:11;;;;;;;10.70;9.07;;;;;;;;;;5015974;28;20021;-77
2023/12/21 11:58:39;;;;;;;29.38;22.27;;;;;;;;;;5008315;28;20349;-78
2023/12/21 12:01:04;;;;;;;20.65;16.52;;;;;;;;;;5023574;28;20022;-79
2023/12/21 12:03:30;;;;;;;7.45;6.47;;;;;;;;;;5014084;28;20094;-78
2023/12/21 12:06:03;;;;;;;23.00;16.33;;;;;;;;;;5010125;28;20032;-79
2023/12/21 12:08:28;;;;;;;19.88;15.77;;;;;;;;;;5009208;28;20053;-81
2023/12/21 12:10:54;;;;;;;37.03;27.73;;;;;;;;;;5018503;28;20044;-78
2023/12/21 12:13:23;;;;;;;24.13;18.70;;;;;;;;;;5012200;28;20049;-78
2023/12/21 12:15:50;;;;;;;26.48;19.92;;;;;;;;;;5006502;28;20029;-78
2023/12/21 12:18:16;;;;;;;20.73;15.82;;;;;;;;;;5017703;28;20025;-80
2023/12/21 12:20:45;;;;;;;11.40;9.07;;;;;;;;;;5019572;28;20036;-79
2023/12/21 12:23:10;;;;;;;21.57;16.77;;;;;;;;;;5023668;28;20036;-81
2023/12/21 12:25:36;;;;;;;20.92;18.08;;;;;;;;;;5026689;28;20259;-83
2023/12/21 12:28:03;;;;;;;27.00;22.95;;;;;;;;;;5023015;28;20025;-79
2023/12/21 12:30:29;;;;;;;25.42;19.85;;;;;;;;;;5023949;28;20144;-80
2023/12/21 12:32:54;;;;;;;19.40;17.17;;;;;;;;;;5009916;28;20080;-80
2023/12/21 12:35:20;;;;;;;12.43;11.13;;;;;;;;;;5023534;28;20077;-79
2023/12/21 12:37:47;;;;;;;12.07;10.88;;;;;;;;;;5023055;28;20033;-80
2023/12/21 12:40:13;;;;;;;8.63;7.32;;;;;;;;;;5024026;28;20105;-79
2023/12/21 12:42:38;;;;;;;7.15;6.45;;;;;;;;;;5023933;28;20214;-80
2023/12/21 12:45:05;;;;;;;16.33;14.30;;;;;;;;;;5023959;28;20025;-79
2023/12/21 12:47:31;;;;;;;16.17;12.93;;;;;;;;;;5024039;28;20013;-80
2023/12/21 12:49:57;;;;;;;23.95;19.30;;;;;;;;;;5011710;28;20021;-80
2023/12/21 12:52:22;;;;;;;13.70;11.13;;;;;;;;;;5022869;28;20025;-81
2023/12/21 12:54:48;;;;;;;15.35;11.95;;;;;;;;;;5023774;28;20032;-80
2023/12/21 12:57:13;;;;;;;40.97;24.98;;;;;;;;;;5023391;28;20108;-82
2023/12/21 12:59:38;;;;;;;16.23;11.32;;;;;;;;;;5023321;28;20025;-81
2023/12/21 13:02:04;;;;;;;26.65;18.63;;;;;;;;;;5011735;28;20514;-81
2023/12/21 13:04:30;;;;;;;31.38;23.75;;;;;;;;;;5009506;28;20040;-80
2023/12/21 13:06:55;;;;;;;53.28;34.10;;;;;;;;;;5022196;28;20116;-79
2023/12/21 13:09:21;;;;;;;57.88;39.25;;;;;;;;;;5023944;28;20136;-82
2023/12/21 13:11:47;;;;;;;73.70;51.85;;;;;;;;;;5023551;28;20072;-80
2023/12/21 13:14:14;;;;;;;44.22;37.28;;;;;;;;;;5006143;28;20057;-80
2023/12/21 13:16:39;;;;;;;41.80;37.60;;;;;;;;;;5022168;28;20032;-81
2023/12/21 13:19:06;;;;;;;32.88;29.38;;;;;;;;;;5022086;28;20029;-81
2023/12/21 13:21:31;;;;;;;26.83;23.58;;;;;;;;;;5022274;28;20022;-80
2023/12/21 13:23:57;;;;;;;45.70;34.50;;;;;;;;;;5022937;28;20464;-82
2023/12/21 13:26:22;;;;;;;18.48;16.67;;;;;;;;;;5009423;28;20621;-79
2023/12/21 13:28:48;;;;;;;22.08;19.88;;;;;;;;;;5022832;28;20104;-79
2023/12/21 13:31:14;;;;;;;27.15;24.35;;;;;;;;;;5023187;28;20044;-79
2023/12/21 13:33:39;;;;;;;38.78;34.80;;;;;;;;;;5022897;28;20029;-79
2023/12/21 13:36:05;;;;;;;42.17;37.88;;;;;;;;;;5023996;28;20103;-80
2023/12/21 13:38:30;;;;;;;29.95;25.88;;;;;;;;;;5022908;28;20075;-81
2023/12/21 13:40:57;;;;;;;31.00;23.98;;;;;;;;;;5008693;28;20434;-80
2023/12/21 13:43:22;;;;;;;19.83;17.75;;;;;;;;;;5009245;28;20040;-79
2023/12/21 13:45:48;;;;;;;17.63;15.82;;;;;;;;;;5013736;28;20025;-81
2023/12/21 13:48:14;;;;;;;15.35;13.60;;;;;;;;;;5018201;28;20033;-80
2023/12/21 13:50:40;;;;;;;28.17;22.80;;;;;;;;;;5023093;28;20017;-81
2023/12/21 13:53:05;;;;;;;12.82;11.00;;;;;;;;;;5010601;28;20429;-79
2023/12/21 13:55:30;;;;;;;40.03;27.50;;;;;;;;;;5022490;28;20029;-78
2023/12/21 13:57:56;;;;;;;36.75;32.80;;;;;;;;;;5020439;28;20369;-76
2023/12/21 14:00:23;;;;;;;30.95;27.65;;;;;;;;;;5021083;28;20051;-82
2023/12/21 14:02:52;;;;;;;18.20;16.42;;;;;;;;;;5019843;28;20360;-78
2023/12/21 14:05:17;;;;;;;71.63;48.92;;;;;;;;;;5014132;28;20033;-86
2023/12/21 14:07:42;;;;;;;76.13;55.28;;;;;;;;;;5022443;28;20409;-86